Apora, Brazil
Current Conditions -  °F | °C
As of 2:00 PM on Monday 22 Dec 2014 (Local Time) from SBAR Reporting Station
Scattered Clouds Scattered Clouds  
Wind Chill: 84°   Ceiling: Unl
Heat Index: 88°   Visibility: 6mi
Dew Point: 70°   Wind: 14mph
Humidity: 62%   Direction: 120°ESE
Pressure: 29.91"   Gusts: NA
Location:  11.66°S, 38.08°W
Report Text: SBAR 221700Z 12012KT 9999 SCT015 29/21 Q1013
Loading
Personal Weather Stations






























Interactive Weather Map New forecast layout! Learn more

10-Day Weather Forecast

Advertisements
Track Severe Weather on mobile